sensor_id;sensor_type;location;lat;lon;timestamp;P1;durP1;ratioP1;P2;durP2;ratioP2
43311;SDS011;30041;48.300;16.352;2024-01-15T00:01:43;1.52;;;1.00;;
43311;SDS011;30041;48.300;16.352;2024-01-15T00:04:09;1.65;;;0.95;;
43311;SDS011;30041;48.300;16.352;2024-01-15T00:06:35;1.23;;;0.80;;
43311;SDS011;30041;48.300;16.352;2024-01-15T00:09:01;1.10;;;0.70;;
43311;SDS011;30041;48.300;16.352;2024-01-15T00:11:27;1.15;;;0.80;;
43311;SDS011;30041;48.300;16.352;2024-01-15T00:13:55;1.05;;;0.73;;
43311;SDS011;30041;48.300;16.352;2024-01-15T00:16:21;1.38;;;0.80;;
43311;SDS011;30041;48.300;16.352;2024-01-15T00:18:50;0.90;;;0.70;;
43311;SDS011;30041;48.300;16.352;2024-01-15T00:21:18;1.20;;;0.90;;
43311;SDS011;30041;48.300;16.352;2024-01-15T00:23:44;1.75;;;0.90;;
43311;SDS011;30041;48.300;16.352;2024-01-15T00:26:10;0.90;;;0.70;;
43311;SDS011;30041;48.300;16.352;2024-01-15T00:28:36;1.98;;;0.90;;
43311;SDS011;30041;48.300;16.352;2024-01-15T00:31:03;1.17;;;0.75;;
43311;SDS011;30041;48.300;16.352;2024-01-15T00:33:34;1.45;;;0.90;;
43311;SDS011;30041;48.300;16.352;2024-01-15T00:36:00;1.20;;;0.75;;
43311;SDS011;30041;48.300;16.352;2024-01-15T00:38:31;1.13;;;0.70;;
43311;SDS011;30041;48.300;16.352;2024-01-15T00:40:56;1.10;;;0.60;;
43311;SDS011;30041;48.300;16.352;2024-01-15T00:43:22;1.08;;;0.80;;
43311;SDS011;30041;48.300;16.352;2024-01-15T00:45:48;1.15;;;0.70;;
43311;SDS011;30041;48.300;16.352;2024-01-15T00:48:16;1.10;;;0.90;;
43311;SDS011;30041;48.300;16.352;2024-01-15T00:50:42;1.30;;;0.88;;
43311;SDS011;30041;48.300;16.352;2024-01-15T00:53:08;1.60;;;0.90;;
43311;SDS011;30041;48.300;16.352;2024-01-15T00:55:33;1.27;;;0.73;;
43311;SDS011;30041;48.300;16.352;2024-01-15T00:57:59;1.08;;;0.80;;
43311;SDS011;30041;48.300;16.352;2024-01-15T01:00:25;1.95;;;0.90;;
43311;SDS011;30041;48.300;16.352;2024-01-15T01:02:51;1.02;;;0.80;;
43311;SDS011;30041;48.300;16.352;2024-01-15T01:05:17;1.00;;;0.70;;
43311;SDS011;30041;48.300;16.352;2024-01-15T01:07:42;1.15;;;0.75;;
43311;SDS011;30041;48.300;16.352;2024-01-15T01:10:11;1.77;;;0.80;;
43311;SDS011;30041;48.300;16.352;2024-01-15T01:12:37;0.90;;;0.65;;
43311;SDS011;30041;48.300;16.352;2024-01-15T01:15:05;1.20;;;0.80;;
43311;SDS011;30041;48.300;16.352;2024-01-15T01:17:31;1.55;;;0.90;;
43311;SDS011;30041;48.300;16.352;2024-01-15T01:19:57;0.70;;;0.70;;
43311;SDS011;30041;48.300;16.352;2024-01-15T01:22:22;1.63;;;0.82;;
43311;SDS011;30041;48.300;16.352;2024-01-15T01:24:48;1.75;;;1.00;;
43311;SDS011;30041;48.300;16.352;2024-01-15T01:27:14;1.15;;;0.70;;
43311;SDS011;30041;48.300;16.352;2024-01-15T01:29:40;1.63;;;0.90;;
43311;SDS011;30041;48.300;16.352;2024-01-15T01:32:06;1.30;;;0.90;;
43311;SDS011;30041;48.300;16.352;2024-01-15T01:34:32;0.70;;;0.60;;
43311;SDS011;30041;48.300;16.352;2024-01-15T01:36:58;0.60;;;0.60;;
43311;SDS011;30041;48.300;16.352;2024-01-15T01:39:26;1.55;;;1.10;;
43311;SDS011;30041;48.300;16.352;2024-01-15T01:41:52;1.77;;;0.90;;
43311;SDS011;30041;48.300;16.352;2024-01-15T01:44:21;0.95;;;0.70;;
43311;SDS011;30041;48.300;16.352;2024-01-15T01:46:49;1.17;;;0.90;;
43311;SDS011;30041;48.300;16.352;2024-01-15T01:49:15;1.17;;;1.00;;
43311;SDS011;30041;48.300;16.352;2024-01-15T01:51:41;0.93;;;0.70;;
43311;SDS011;30041;48.300;16.352;2024-01-15T01:54:08;1.10;;;0.75;;
43311;SDS011;30041;48.300;16.352;2024-01-15T01:56:34;1.50;;;0.90;;
43311;SDS011;30041;48.300;16.352;2024-01-15T01:59:03;1.20;;;0.70;;
43311;SDS011;30041;48.300;16.352;2024-01-15T02:01:31;1.00;;;0.80;;
43311;SDS011;30041;48.300;16.352;2024-01-15T02:03:57;1.02;;;0.70;;
43311;SDS011;30041;48.300;16.352;2024-01-15T02:06:23;1.08;;;0.70;;
43311;SDS011;30041;48.300;16.352;2024-01-15T02:08:50;1.55;;;0.90;;
43311;SDS011;30041;48.300;16.352;2024-01-15T02:11:16;1.40;;;0.90;;
43311;SDS011;30041;48.300;16.352;2024-01-15T02:13:41;1.50;;;0.95;;
43311;SDS011;30041;48.300;16.352;2024-01-15T02:16:07;1.10;;;0.90;;
43311;SDS011;30041;48.300;16.352;2024-01-15T02:18:42;0.95;;;0.70;;
43311;SDS011;30041;48.300;16.352;2024-01-15T02:21:10;1.17;;;0.80;;
43311;SDS011;30041;48.300;16.352;2024-01-15T02:23:36;0.75;;;0.70;;
43311;SDS011;30041;48.300;16.352;2024-01-15T02:26:02;1.35;;;0.98;;
43311;SDS011;30041;48.300;16.352;2024-01-15T02:28:31;1.00;;;0.73;;
43311;SDS011;30041;48.300;16.352;2024-01-15T02:30:58;1.52;;;0.93;;
43311;SDS011;30041;48.300;16.352;2024-01-15T02:33:24;1.60;;;1.02;;
43311;SDS011;30041;48.300;16.352;2024-01-15T02:35:50;1.20;;;0.80;;
43311;SDS011;30041;48.300;16.352;2024-01-15T02:38:18;1.30;;;0.82;;
43311;SDS011;30041;48.300;16.352;2024-01-15T02:40:45;1.38;;;0.88;;
43311;SDS011;30041;48.300;16.352;2024-01-15T02:43:13;0.90;;;0.60;;
43311;SDS011;30041;48.300;16.352;2024-01-15T02:45:41;1.20;;;0.82;;
43311;SDS011;30041;48.300;16.352;2024-01-15T02:48:07;1.20;;;0.90;;
43311;SDS011;30041;48.300;16.352;2024-01-15T02:50:33;1.15;;;0.80;;
43311;SDS011;30041;48.300;16.352;2024-01-15T02:52:59;1.30;;;0.70;;
43311;SDS011;30041;48.300;16.352;2024-01-15T02:55:24;1.17;;;0.88;;
43311;SDS011;30041;48.300;16.352;2024-01-15T02:57:50;1.20;;;0.93;;
43311;SDS011;30041;48.300;16.352;2024-01-15T03:00:26;1.98;;;1.00;;
43311;SDS011;30041;48.300;16.352;2024-01-15T03:02:52;1.20;;;0.80;;
43311;SDS011;30041;48.300;16.352;2024-01-15T03:05:18;1.40;;;0.80;;
43311;SDS011;30041;48.300;16.352;2024-01-15T03:07:43;0.95;;;0.65;;
43311;SDS011;30041;48.300;16.352;2024-01-15T03:10:09;1.13;;;0.93;;
43311;SDS011;30041;48.300;16.352;2024-01-15T03:12:35;1.05;;;0.80;;
43311;SDS011;30041;48.300;16.352;2024-01-15T03:15:04;1.33;;;0.93;;
43311;SDS011;30041;48.300;16.352;2024-01-15T03:17:30;1.40;;;0.80;;
43311;SDS011;30041;48.300;16.352;2024-01-15T03:19:56;1.27;;;0.90;;
43311;SDS011;30041;48.300;16.352;2024-01-15T03:22:22;1.02;;;0.75;;
43311;SDS011;30041;48.300;16.352;2024-01-15T03:24:48;1.10;;;0.90;;
43311;SDS011;30041;48.300;16.352;2024-01-15T03:27:14;1.45;;;0.90;;
43311;SDS011;30041;48.300;16.352;2024-01-15T03:29:40;1.42;;;1.00;;
43311;SDS011;30041;48.300;16.352;2024-01-15T03:32:06;1.30;;;0.90;;
43311;SDS011;30041;48.300;16.352;2024-01-15T03:34:32;1.23;;;0.80;;
43311;SDS011;30041;48.300;16.352;2024-01-15T03:37:05;1.05;;;0.80;;
43311;SDS011;30041;48.300;16.352;2024-01-15T03:39:31;1.10;;;0.70;;
43311;SDS011;30041;48.300;16.352;2024-01-15T03:42:00;1.00;;;0.70;;
43311;SDS011;30041;48.300;16.352;2024-01-15T03:44:36;1.20;;;0.90;;
43311;SDS011;30041;48.300;16.352;2024-01-15T03:47:02;1.33;;;0.98;;
43311;SDS011;30041;48.300;16.352;2024-01-15T03:49:28;1.38;;;0.80;;
43311;SDS011;30041;48.300;16.352;2024-01-15T03:51:54;0.88;;;0.70;;
43311;SDS011;30041;48.300;16.352;2024-01-15T03:54:22;0.80;;;0.70;;
43311;SDS011;30041;48.300;16.352;2024-01-15T03:56:48;1.00;;;0.90;;
43311;SDS011;30041;48.300;16.352;2024-01-15T03:59:19;1.02;;;0.88;;
43311;SDS011;30041;48.300;16.352;2024-01-15T04:01:49;1.23;;;0.82;;
43311;SDS011;30041;48.300;16.352;2024-01-15T04:04:18;1.30;;;0.77;;
43311;SDS011;30041;48.300;16.352;2024-01-15T04:06:44;1.40;;;0.80;;
43311;SDS011;30041;48.300;16.352;2024-01-15T04:09:09;1.10;;;0.77;;
43311;SDS011;30041;48.300;16.352;2024-01-15T04:11:38;1.40;;;1.10;;
43311;SDS011;30041;48.300;16.352;2024-01-15T04:14:08;1.52;;;0.95;;
43311;SDS011;30041;48.300;16.352;2024-01-15T04:16:34;1.27;;;0.90;;
43311;SDS011;30041;48.300;16.352;2024-01-15T04:19:00;1.15;;;0.77;;
43311;SDS011;30041;48.300;16.352;2024-01-15T04:21:35;1.02;;;0.80;;
43311;SDS011;30041;48.300;16.352;2024-01-15T04:24:06;1.02;;;0.70;;
43311;SDS011;30041;48.300;16.352;2024-01-15T04:26:34;1.40;;;0.90;;
43311;SDS011;30041;48.300;16.352;2024-01-15T04:29:03;0.98;;;0.75;;
43311;SDS011;30041;48.300;16.352;2024-01-15T04:31:29;1.40;;;0.88;;
43311;SDS011;30041;48.300;16.352;2024-01-15T04:34:01;1.30;;;0.80;;
43311;SDS011;30041;48.300;16.352;2024-01-15T04:36:29;2.13;;;0.90;;
43311;SDS011;30041;48.300;16.352;2024-01-15T04:38:55;1.00;;;0.73;;
43311;SDS011;30041;48.300;16.352;2024-01-15T04:41:21;1.00;;;0.80;;
43311;SDS011;30041;48.300;16.352;2024-01-15T04:43:53;1.30;;;0.90;;
43311;SDS011;30041;48.300;16.352;2024-01-15T04:46:22;0.75;;;0.60;;
43311;SDS011;30041;48.300;16.352;2024-01-15T04:48:55;1.25;;;0.95;;
43311;SDS011;30041;48.300;16.352;2024-01-15T04:51:21;2.80;;;1.60;;
43311;SDS011;30041;48.300;16.352;2024-01-15T04:53:55;1.90;;;1.20;;
43311;SDS011;30041;48.300;16.352;2024-01-15T04:56:24;1.55;;;1.20;;
43311;SDS011;30041;48.300;16.352;2024-01-15T04:58:52;1.70;;;1.10;;
43311;SDS011;30041;48.300;16.352;2024-01-15T05:01:23;1.45;;;0.90;;
43311;SDS011;30041;48.300;16.352;2024-01-15T05:03:51;1.60;;;0.90;;
43311;SDS011;30041;48.300;16.352;2024-01-15T05:06:19;1.27;;;0.80;;
43311;SDS011;30041;48.300;16.352;2024-01-15T05:08:45;1.33;;;0.80;;
43311;SDS011;30041;48.300;16.352;2024-01-15T05:11:13;0.90;;;0.60;;
43311;SDS011;30041;48.300;16.352;2024-01-15T05:13:39;1.00;;;0.80;;
43311;SDS011;30041;48.300;16.352;2024-01-15T05:16:05;0.80;;;0.57;;
43311;SDS011;30041;48.300;16.352;2024-01-15T05:18:40;2.08;;;0.52;;
43311;SDS011;30041;48.300;16.352;2024-01-15T05:21:05;1.33;;;0.70;;
43311;SDS011;30041;48.300;16.352;2024-01-15T05:23:33;1.02;;;0.68;;
43311;SDS011;30041;48.300;16.352;2024-01-15T05:25:59;0.70;;;0.50;;
43311;SDS011;30041;48.300;16.352;2024-01-15T05:28:28;0.73;;;0.52;;
43311;SDS011;30041;48.300;16.352;2024-01-15T05:30:54;0.75;;;0.60;;
43311;SDS011;30041;48.300;16.352;2024-01-15T05:33:20;1.00;;;0.60;;
43311;SDS011;30041;48.300;16.352;2024-01-15T05:35:49;2.75;;;0.70;;
43311;SDS011;30041;48.300;16.352;2024-01-15T05:38:15;1.90;;;0.70;;
43311;SDS011;30041;48.300;16.352;2024-01-15T05:40:40;0.88;;;0.70;;
43311;SDS011;30041;48.300;16.352;2024-01-15T05:43:06;1.02;;;0.63;;
43311;SDS011;30041;48.300;16.352;2024-01-15T05:45:32;1.25;;;0.60;;
43311;SDS011;30041;48.300;16.352;2024-01-15T05:48:00;0.73;;;0.60;;
43311;SDS011;30041;48.300;16.352;2024-01-15T05:50:25;2.95;;;0.80;;
43311;SDS011;30041;48.300;16.352;2024-01-15T05:52:51;2.10;;;0.80;;
43311;SDS011;30041;48.300;16.352;2024-01-15T05:55:17;1.52;;;0.80;;
43311;SDS011;30041;48.300;16.352;2024-01-15T05:57:43;2.10;;;0.75;;
43311;SDS011;30041;48.300;16.352;2024-01-15T06:00:09;1.55;;;0.98;;
43311;SDS011;30041;48.300;16.352;2024-01-15T06:02:36;3.75;;;1.10;;
43311;SDS011;30041;48.300;16.352;2024-01-15T06:05:08;1.83;;;1.08;;
43311;SDS011;30041;48.300;16.352;2024-01-15T06:07:36;2.28;;;1.17;;
43311;SDS011;30041;48.300;16.352;2024-01-15T06:10:05;3.05;;;1.30;;
43311;SDS011;30041;48.300;16.352;2024-01-15T06:12:31;3.58;;;1.20;;
43311;SDS011;30041;48.300;16.352;2024-01-15T06:15:00;2.45;;;1.27;;
43311;SDS011;30041;48.300;16.352;2024-01-15T06:17:26;4.65;;;1.30;;
43311;SDS011;30041;48.300;16.352;2024-01-15T06:19:51;3.28;;;1.52;;
43311;SDS011;30041;48.300;16.352;2024-01-15T06:22:26;3.60;;;1.80;;
43311;SDS011;30041;48.300;16.352;2024-01-15T06:24:52;5.60;;;2.25;;
43311;SDS011;30041;48.300;16.352;2024-01-15T06:27:18;6.85;;;2.30;;
43311;SDS011;30041;48.300;16.352;2024-01-15T06:29:49;4.82;;;2.45;;
43311;SDS011;30041;48.300;16.352;2024-01-15T06:32:14;4.25;;;2.33;;
43311;SDS011;30041;48.300;16.352;2024-01-15T06:34:43;4.80;;;2.90;;
43311;SDS011;30041;48.300;16.352;2024-01-15T06:37:09;5.28;;;3.05;;
43311;SDS011;30041;48.300;16.352;2024-01-15T06:39:37;3.97;;;2.72;;
43311;SDS011;30041;48.300;16.352;2024-01-15T06:42:03;5.60;;;2.38;;
43311;SDS011;30041;48.300;16.352;2024-01-15T06:44:32;9.60;;;2.50;;
43311;SDS011;30041;48.300;16.352;2024-01-15T06:46:58;7.15;;;3.15;;
43311;SDS011;30041;48.300;16.352;2024-01-15T06:49:24;10.10;;;2.90;;
43311;SDS011;30041;48.300;16.352;2024-01-15T06:51:52;12.55;;;2.97;;
43311;SDS011;30041;48.300;16.352;2024-01-15T06:54:18;7.45;;;3.08;;
43311;SDS011;30041;48.300;16.352;2024-01-15T06:56:46;6.70;;;2.83;;
43311;SDS011;30041;48.300;16.352;2024-01-15T06:59:12;6.32;;;2.47;;
43311;SDS011;30041;48.300;16.352;2024-01-15T07:01:38;5.22;;;2.80;;
43311;SDS011;30041;48.300;16.352;2024-01-15T07:04:06;10.27;;;2.78;;
43311;SDS011;30041;48.300;16.352;2024-01-15T07:06:32;9.65;;;3.50;;
43311;SDS011;30041;48.300;16.352;2024-01-15T07:09:01;10.27;;;3.60;;
43311;SDS011;30041;48.300;16.352;2024-01-15T07:11:26;11.38;;;4.15;;
43311;SDS011;30041;48.300;16.352;2024-01-15T07:13:55;11.05;;;3.78;;
43311;SDS011;30041;48.300;16.352;2024-01-15T07:16:23;6.65;;;3.38;;
43311;SDS011;30041;48.300;16.352;2024-01-15T07:18:49;7.07;;;2.75;;
43311;SDS011;30041;48.300;16.352;2024-01-15T07:21:15;9.70;;;2.80;;
43311;SDS011;30041;48.300;16.352;2024-01-15T07:23:40;4.38;;;2.33;;
43311;SDS011;30041;48.300;16.352;2024-01-15T07:26:06;5.85;;;2.60;;
43311;SDS011;30041;48.300;16.352;2024-01-15T07:28:32;6.35;;;2.63;;
43311;SDS011;30041;48.300;16.352;2024-01-15T07:30:58;7.75;;;2.60;;
43311;SDS011;30041;48.300;16.352;2024-01-15T07:33:26;5.95;;;2.28;;
43311;SDS011;30041;48.300;16.352;2024-01-15T07:35:58;6.15;;;2.25;;
43311;SDS011;30041;48.300;16.352;2024-01-15T07:38:24;8.32;;;2.38;;
43311;SDS011;30041;48.300;16.352;2024-01-15T07:40:50;6.93;;;2.50;;
43311;SDS011;30041;48.300;16.352;2024-01-15T07:43:16;6.68;;;2.53;;
43311;SDS011;30041;48.300;16.352;2024-01-15T07:45:41;8.30;;;2.30;;
43311;SDS011;30041;48.300;16.352;2024-01-15T07:48:07;5.05;;;2.03;;
43311;SDS011;30041;48.300;16.352;2024-01-15T07:50:35;7.55;;;2.25;;
43311;SDS011;30041;48.300;16.352;2024-01-15T07:53:03;3.45;;;2.20;;
43311;SDS011;30041;48.300;16.352;2024-01-15T07:55:29;4.47;;;2.40;;
43311;SDS011;30041;48.300;16.352;2024-01-15T07:57:55;4.28;;;2.08;;
43311;SDS011;30041;48.300;16.352;2024-01-15T08:00:21;4.72;;;2.00;;
43311;SDS011;30041;48.300;16.352;2024-01-15T08:02:47;5.00;;;2.13;;
43311;SDS011;30041;48.300;16.352;2024-01-15T08:05:16;5.47;;;2.58;;
43311;SDS011;30041;48.300;16.352;2024-01-15T08:07:42;4.68;;;2.00;;
43311;SDS011;30041;48.300;16.352;2024-01-15T08:10:08;4.85;;;2.20;;
43311;SDS011;30041;48.300;16.352;2024-01-15T08:12:34;4.95;;;2.10;;
43311;SDS011;30041;48.300;16.352;2024-01-15T08:14:59;6.68;;;2.50;;
43311;SDS011;30041;48.300;16.352;2024-01-15T08:17:30;4.20;;;2.00;;
43311;SDS011;30041;48.300;16.352;2024-01-15T08:19:59;4.38;;;2.00;;
43311;SDS011;30041;48.300;16.352;2024-01-15T08:22:34;3.33;;;2.08;;
43311;SDS011;30041;48.300;16.352;2024-01-15T08:24:59;5.57;;;2.45;;
43311;SDS011;30041;48.300;16.352;2024-01-15T08:27:25;2.80;;;1.88;;
43311;SDS011;30041;48.300;16.352;2024-01-15T08:29:54;4.32;;;2.00;;
43311;SDS011;30041;48.300;16.352;2024-01-15T08:32:20;4.93;;;2.05;;
43311;SDS011;30041;48.300;16.352;2024-01-15T08:34:46;5.25;;;1.85;;
43311;SDS011;30041;48.300;16.352;2024-01-15T08:37:14;3.63;;;1.70;;
43311;SDS011;30041;48.300;16.352;2024-01-15T08:39:40;6.45;;;2.00;;
43311;SDS011;30041;48.300;16.352;2024-01-15T08:42:05;3.42;;;1.67;;
43311;SDS011;30041;48.300;16.352;2024-01-15T08:44:31;5.20;;;1.90;;
43311;SDS011;30041;48.300;16.352;2024-01-15T08:46:57;3.50;;;1.98;;
43311;SDS011;30041;48.300;16.352;2024-01-15T08:49:23;5.35;;;2.17;;
43311;SDS011;30041;48.300;16.352;2024-01-15T08:51:48;4.95;;;2.08;;
43311;SDS011;30041;48.300;16.352;2024-01-15T08:54:14;4.65;;;1.80;;
43311;SDS011;30041;48.300;16.352;2024-01-15T08:56:40;2.95;;;1.95;;
43311;SDS011;30041;48.300;16.352;2024-01-15T08:59:06;4.03;;;2.00;;
43311;SDS011;30041;48.300;16.352;2024-01-15T09:01:35;3.38;;;1.88;;
43311;SDS011;30041;48.300;16.352;2024-01-15T09:04:00;3.10;;;1.80;;
43311;SDS011;30041;48.300;16.352;2024-01-15T09:06:26;3.63;;;1.92;;
43311;SDS011;30041;48.300;16.352;2024-01-15T09:08:52;2.83;;;1.70;;
43311;SDS011;30041;48.300;16.352;2024-01-15T09:11:18;3.22;;;1.77;;
43311;SDS011;30041;48.300;16.352;2024-01-15T09:13:46;4.70;;;2.10;;
43311;SDS011;30041;48.300;16.352;2024-01-15T09:16:12;4.60;;;1.90;;
43311;SDS011;30041;48.300;16.352;2024-01-15T09:18:38;3.42;;;1.52;;
43311;SDS011;30041;48.300;16.352;2024-01-15T09:21:06;2.38;;;1.60;;
43311;SDS011;30041;48.300;16.352;2024-01-15T09:23:32;2.60;;;1.73;;
43311;SDS011;30041;48.300;16.352;2024-01-15T09:25:57;3.35;;;1.83;;
43311;SDS011;30041;48.300;16.352;2024-01-15T09:28:25;2.70;;;1.70;;
43311;SDS011;30041;48.300;16.352;2024-01-15T09:30:54;3.75;;;1.60;;
43311;SDS011;30041;48.300;16.352;2024-01-15T09:33:22;3.03;;;1.92;;
43311;SDS011;30041;48.300;16.352;2024-01-15T09:35:47;2.72;;;1.75;;
43311;SDS011;30041;48.300;16.352;2024-01-15T09:38:13;2.80;;;1.70;;
43311;SDS011;30041;48.300;16.352;2024-01-15T09:40:39;2.25;;;1.67;;
43311;SDS011;30041;48.300;16.352;2024-01-15T09:43:08;3.13;;;1.70;;
43311;SDS011;30041;48.300;16.352;2024-01-15T09:45:34;2.45;;;1.65;;
43311;SDS011;30041;48.300;16.352;2024-01-15T09:48:05;2.78;;;1.50;;
43311;SDS011;30041;48.300;16.352;2024-01-15T09:50:31;2.60;;;1.52;;
43311;SDS011;30041;48.300;16.352;2024-01-15T09:53:01;2.13;;;1.50;;
43311;SDS011;30041;48.300;16.352;2024-01-15T09:55:28;2.45;;;1.55;;
43311;SDS011;30041;48.300;16.352;2024-01-15T09:57:54;3.15;;;1.65;;
43311;SDS011;30041;48.300;16.352;2024-01-15T10:00:21;2.72;;;1.60;;
43311;SDS011;30041;48.300;16.352;2024-01-15T10:02:48;3.13;;;1.52;;
43311;SDS011;30041;48.300;16.352;2024-01-15T10:05:14;2.13;;;1.48;;
43311;SDS011;30041;48.300;16.352;2024-01-15T10:07:43;3.33;;;1.80;;
43311;SDS011;30041;48.300;16.352;2024-01-15T10:10:11;2.55;;;1.63;;
43311;SDS011;30041;48.300;16.352;2024-01-15T10:12:40;3.88;;;1.65;;
43311;SDS011;30041;48.300;16.352;2024-01-15T10:15:09;2.85;;;1.75;;
43311;SDS011;30041;48.300;16.352;2024-01-15T10:17:36;3.30;;;1.70;;
43311;SDS011;30041;48.300;16.352;2024-01-15T10:20:03;1.88;;;1.30;;
43311;SDS011;30041;48.300;16.352;2024-01-15T10:22:41;2.35;;;1.70;;
43311;SDS011;30041;48.300;16.352;2024-01-15T10:25:17;2.50;;;1.63;;
43311;SDS011;30041;48.300;16.352;2024-01-15T10:27:43;2.22;;;1.60;;
43311;SDS011;30041;48.300;16.352;2024-01-15T10:30:09;2.53;;;1.60;;
43311;SDS011;30041;48.300;16.352;2024-01-15T10:32:36;2.72;;;1.67;;
43311;SDS011;30041;48.300;16.352;2024-01-15T10:35:03;1.90;;;1.40;;
43311;SDS011;30041;48.300;16.352;2024-01-15T10:37:34;3.03;;;1.60;;
43311;SDS011;30041;48.300;16.352;2024-01-15T10:40:01;1.80;;;1.20;;
43311;SDS011;30041;48.300;16.352;2024-01-15T10:42:28;1.98;;;1.35;;
43311;SDS011;30041;48.300;16.352;2024-01-15T10:44:56;1.90;;;1.45;;
43311;SDS011;30041;48.300;16.352;2024-01-15T10:47:22;2.10;;;1.40;;
43311;SDS011;30041;48.300;16.352;2024-01-15T10:49:48;2.38;;;1.20;;
43311;SDS011;30041;48.300;16.352;2024-01-15T10:52:15;3.38;;;1.45;;
43311;SDS011;30041;48.300;16.352;2024-01-15T10:54:44;2.20;;;1.60;;
43311;SDS011;30041;48.300;16.352;2024-01-15T10:57:13;1.75;;;1.23;;
43311;SDS011;30041;48.300;16.352;2024-01-15T10:59:44;2.22;;;1.40;;
43311;SDS011;30041;48.300;16.352;2024-01-15T11:02:09;1.98;;;1.20;;
43311;SDS011;30041;48.300;16.352;2024-01-15T11:04:49;2.10;;;1.27;;
43311;SDS011;30041;48.300;16.352;2024-01-15T11:07:17;2.58;;;1.45;;
43311;SDS011;30041;48.300;16.352;2024-01-15T11:09:49;2.58;;;1.33;;
43311;SDS011;30041;48.300;16.352;2024-01-15T11:12:16;2.83;;;1.20;;
43311;SDS011;30041;48.300;16.352;2024-01-15T11:14:45;3.20;;;1.45;;
43311;SDS011;30041;48.300;16.352;2024-01-15T11:17:12;1.98;;;1.40;;
43311;SDS011;30041;48.300;16.352;2024-01-15T11:24:55;3.25;;;1.33;;
43311;SDS011;30041;48.300;16.352;2024-01-15T11:27:40;3.20;;;1.40;;
43311;SDS011;30041;48.300;16.352;2024-01-15T11:30:10;3.03;;;1.42;;
43311;SDS011;30041;48.300;16.352;2024-01-15T11:32:37;2.38;;;1.40;;
43311;SDS011;30041;48.300;16.352;2024-01-15T11:35:03;1.52;;;1.05;;
43311;SDS011;30041;48.300;16.352;2024-01-15T11:37:56;2.22;;;1.25;;
43311;SDS011;30041;48.300;16.352;2024-01-15T11:40:18;1.88;;;1.20;;
43311;SDS011;30041;48.300;16.352;2024-01-15T11:42:48;1.67;;;1.20;;
43311;SDS011;30041;48.300;16.352;2024-01-15T11:45:18;1.48;;;1.15;;
43311;SDS011;30041;48.300;16.352;2024-01-15T11:50:42;1.42;;;1.08;;
43311;SDS011;30041;48.300;16.352;2024-01-15T11:53:13;1.50;;;1.00;;
43311;SDS011;30041;48.300;16.352;2024-01-15T11:55:43;1.83;;;1.05;;
43311;SDS011;30041;48.300;16.352;2024-01-15T11:58:10;2.10;;;1.23;;
43311;SDS011;30041;48.300;16.352;2024-01-15T12:00:43;1.58;;;1.20;;
43311;SDS011;30041;48.300;16.352;2024-01-15T12:03:10;2.13;;;1.30;;
43311;SDS011;30041;48.300;16.352;2024-01-15T12:05:39;1.48;;;1.02;;
43311;SDS011;30041;48.300;16.352;2024-01-15T12:08:07;1.65;;;1.00;;
43311;SDS011;30041;48.300;16.352;2024-01-15T12:10:33;2.35;;;1.23;;
43311;SDS011;30041;48.300;16.352;2024-01-15T12:13:00;2.03;;;1.30;;
43311;SDS011;30041;48.300;16.352;2024-01-15T12:15:30;1.63;;;1.10;;
43311;SDS011;30041;48.300;16.352;2024-01-15T12:17:56;2.15;;;1.08;;
43311;SDS011;30041;48.300;16.352;2024-01-15T12:20:23;1.77;;;1.00;;
43311;SDS011;30041;48.300;16.352;2024-01-15T12:22:50;1.67;;;1.20;;
43311;SDS011;30041;48.300;16.352;2024-01-15T12:25:16;1.65;;;1.13;;
43311;SDS011;30041;48.300;16.352;2024-01-15T12:27:45;1.33;;;1.08;;
43311;SDS011;30041;48.300;16.352;2024-01-15T12:30:11;1.40;;;1.00;;
43311;SDS011;30041;48.300;16.352;2024-01-15T12:32:39;1.30;;;0.85;;
43311;SDS011;30041;48.300;16.352;2024-01-15T12:35:06;1.50;;;1.02;;
43311;SDS011;30041;48.300;16.352;2024-01-15T12:37:37;1.77;;;1.10;;
43311;SDS011;30041;48.300;16.352;2024-01-15T12:40:08;1.23;;;1.10;;
43311;SDS011;30041;48.300;16.352;2024-01-15T12:42:34;1.73;;;0.95;;
43311;SDS011;30041;48.300;16.352;2024-01-15T12:45:03;1.60;;;1.10;;
43311;SDS011;30041;48.300;16.352;2024-01-15T12:47:31;1.52;;;0.93;;
43311;SDS011;30041;48.300;16.352;2024-01-15T12:50:00;1.30;;;1.00;;
43311;SDS011;30041;48.300;16.352;2024-01-15T12:52:28;2.10;;;1.00;;
43311;SDS011;30041;48.300;16.352;2024-01-15T12:54:55;1.23;;;0.90;;
43311;SDS011;30041;48.300;16.352;2024-01-15T12:57:21;1.42;;;0.93;;
43311;SDS011;30041;48.300;16.352;2024-01-15T12:59:48;1.63;;;1.10;;
43311;SDS011;30041;48.300;16.352;2024-01-15T13:02:14;1.92;;;1.23;;
43311;SDS011;30041;48.300;16.352;2024-01-15T13:04:41;1.63;;;0.90;;
43311;SDS011;30041;48.300;16.352;2024-01-15T13:07:10;1.80;;;1.08;;
43311;SDS011;30041;48.300;16.352;2024-01-15T13:09:36;1.52;;;0.90;;
43311;SDS011;30041;48.300;16.352;2024-01-15T13:12:05;1.55;;;1.00;;
43311;SDS011;30041;48.300;16.352;2024-01-15T13:14:31;1.55;;;1.02;;
43311;SDS011;30041;48.300;16.352;2024-01-15T13:16:58;1.80;;;1.10;;
43311;SDS011;30041;48.300;16.352;2024-01-15T13:19:24;1.90;;;1.10;;
43311;SDS011;30041;48.300;16.352;2024-01-15T13:21:50;1.23;;;0.80;;
43311;SDS011;30041;48.300;16.352;2024-01-15T13:24:18;1.40;;;0.90;;
43311;SDS011;30041;48.300;16.352;2024-01-15T13:26:44;1.30;;;0.90;;
43311;SDS011;30041;48.300;16.352;2024-01-15T13:29:19;1.63;;;0.98;;
43311;SDS011;30041;48.300;16.352;2024-01-15T13:31:54;1.13;;;0.80;;
43311;SDS011;30041;48.300;16.352;2024-01-15T13:34:20;2.37;;;1.00;;
43311;SDS011;30041;48.300;16.352;2024-01-15T13:36:45;2.35;;;1.58;;
43311;SDS011;30041;48.300;16.352;2024-01-15T13:39:16;2.92;;;1.20;;
43311;SDS011;30041;48.300;16.352;2024-01-15T13:41:41;4.60;;;1.45;;
43311;SDS011;30041;48.300;16.352;2024-01-15T13:44:07;2.13;;;1.17;;
43311;SDS011;30041;48.300;16.352;2024-01-15T13:46:33;1.65;;;0.80;;
43311;SDS011;30041;48.300;16.352;2024-01-15T13:49:01;2.97;;;0.80;;
43311;SDS011;30041;48.300;16.352;2024-01-15T13:51:27;3.03;;;1.27;;
43311;SDS011;30041;48.300;16.352;2024-01-15T13:53:53;3.40;;;1.20;;
43311;SDS011;30041;48.300;16.352;2024-01-15T13:56:19;4.13;;;1.60;;
43311;SDS011;30041;48.300;16.352;2024-01-15T13:58:52;2.42;;;1.10;;
43311;SDS011;30041;48.300;16.352;2024-01-15T14:01:18;4.68;;;1.60;;
43311;SDS011;30041;48.300;16.352;2024-01-15T14:03:44;7.85;;;2.00;;
43311;SDS011;30041;48.300;16.352;2024-01-15T14:06:09;6.22;;;1.50;;
43311;SDS011;30041;48.300;16.352;2024-01-15T14:08:35;4.18;;;1.77;;
43311;SDS011;30041;48.300;16.352;2024-01-15T14:11:01;6.25;;;1.98;;
43311;SDS011;30041;48.300;16.352;2024-01-15T14:13:27;5.63;;;1.67;;
43311;SDS011;30041;48.300;16.352;2024-01-15T14:15:52;7.68;;;1.52;;
43311;SDS011;30041;48.300;16.352;2024-01-15T14:18:18;4.57;;;1.77;;
43311;SDS011;30041;48.300;16.352;2024-01-15T14:20:44;8.20;;;1.63;;
43311;SDS011;30041;48.300;16.352;2024-01-15T14:23:10;4.60;;;1.73;;
43311;SDS011;30041;48.300;16.352;2024-01-15T14:25:35;8.32;;;1.90;;
43311;SDS011;30041;48.300;16.352;2024-01-15T14:28:01;5.25;;;2.13;;
43311;SDS011;30041;48.300;16.352;2024-01-15T14:30:27;4.22;;;1.90;;
43311;SDS011;30041;48.300;16.352;2024-01-15T14:32:53;4.55;;;1.85;;
43311;SDS011;30041;48.300;16.352;2024-01-15T14:35:18;11.25;;;2.17;;
43311;SDS011;30041;48.300;16.352;2024-01-15T14:37:44;4.93;;;1.90;;
43311;SDS011;30041;48.300;16.352;2024-01-15T14:40:10;7.45;;;2.00;;
43311;SDS011;30041;48.300;16.352;2024-01-15T14:42:36;8.00;;;1.95;;